Time;durP1;ratioP1;P1;durP2;ratioP2;P2;SDS_P1;SDS_P2;PMS_P1;PMS_P2;Temp;Humidity;BMP_temperature;BMP_pressure;BME280_temperature;BME280_humidity;BME280_pressure;Samples;Min_cycle;Max_cycle;Signal;HPM_P1;HPM_P2
2022/03/21 00:01:07;;;;;;;12.13;8.70;;;;;;;1.90;100.00;97597.13;5056145;27;102790;-59
2022/03/21 00:03:34;;;;;;;11.80;9.50;;;;;;;1.92;100.00;97595.13;5053492;27;101726;-58
2022/03/21 00:06:02;;;;;;;12.80;9.70;;;;;;;1.83;100.00;97609.28;5052002;27;105541;-59
2022/03/21 00:08:28;;;;;;;10.57;9.17;;;;;;;1.68;100.00;97605.69;5051203;27;105762;-58
2022/03/21 00:10:58;;;;;;;12.73;9.60;;;;;;;1.68;100.00;97608.31;5051972;27;101829;-59
2022/03/21 00:13:26;;;;;;;11.27;8.87;;;;;;;1.62;100.00;97618.63;5051905;27;105429;-58
2022/03/21 00:15:55;;;;;;;10.20;8.37;;;;;;;1.55;100.00;97620.28;5052640;27;102538;-58
2022/03/21 00:18:24;;;;;;;9.80;8.03;;;;;;;1.23;100.00;97623.72;5051697;27;101911;-58
2022/03/21 00:20:53;;;;;;;11.13;9.03;;;;;;;1.13;100.00;97617.78;5051710;27;104839;-58
2022/03/21 00:23:21;;;;;;;11.13;8.50;;;;;;;0.97;100.00;97627.41;5056245;27;102679;-58
2022/03/21 00:25:48;;;;;;;11.40;8.73;;;;;;;0.98;100.00;97631.66;5051889;27;105220;-58
2022/03/21 00:28:17;;;;;;;13.17;9.60;;;;;;;0.98;100.00;97629.03;5051125;27;106333;-58
2022/03/21 00:30:46;;;;;;;11.87;9.50;;;;;;;1.08;100.00;97624.50;5051162;27;101939;-59
2022/03/21 00:33:15;;;;;;;11.87;9.40;;;;;;;1.11;100.00;97624.97;5051728;27;105053;-59
2022/03/21 00:35:43;;;;;;;11.97;9.30;;;;;;;0.97;100.00;97624.78;5050930;27;105281;-59
2022/03/21 00:38:14;;;;;;;10.70;9.23;;;;;;;1.16;100.00;97624.50;5051454;27;101856;-59
2022/03/21 00:40:41;;;;;;;11.93;9.43;;;;;;;0.91;100.00;97617.59;5051271;27;105111;-59
2022/03/21 00:43:10;;;;;;;12.87;9.93;;;;;;;0.81;100.00;97620.34;5050867;27;104291;-58
2022/03/21 00:45:39;;;;;;;11.57;9.20;;;;;;;0.92;100.00;97627.06;5054827;27;102170;-58
2022/03/21 00:48:06;;;;;;;12.83;9.27;;;;;;;1.04;100.00;97625.81;5050503;27;106631;-58
2022/03/21 00:50:34;;;;;;;11.73;8.87;;;;;;;1.02;100.00;97625.13;5051409;27;101964;-59
2022/03/21 00:53:01;;;;;;;11.00;9.43;;;;;;;1.00;100.00;97621.88;5051432;27;105385;-59
2022/03/21 00:55:28;;;;;;;12.33;9.53;;;;;;;1.06;100.00;97619.44;5049993;27;104935;-59
2022/03/21 00:57:57;;;;;;;11.97;9.67;;;;;;;0.86;100.00;97612.00;5051111;27;102091;-59
2022/03/21 01:00:25;;;;;;;12.07;9.23;;;;;;;0.91;100.00;97612.34;5050988;27;105115;-59
2022/03/21 01:02:54;;;;;;;13.33;9.83;;;;;;;1.02;100.00;97610.25;5052035;27;102658;-59
2022/03/21 01:05:22;;;;;;;10.83;9.10;;;;;;;0.90;100.00;97611.56;5034140;27;101877;-58
2022/03/21 01:07:50;;;;;;;11.40;9.70;;;;;;;0.73;100.00;97609.84;5053961;27;105154;-59
2022/03/21 01:10:19;;;;;;;11.50;9.27;;;;;;;0.76;100.00;97616.56;5049856;27;101845;-58
2022/03/21 01:12:48;;;;;;;11.30;9.47;;;;;;;0.91;100.00;97617.59;5052541;27;103015;-58
2022/03/21 01:15:16;;;;;;;11.80;9.20;;;;;;;0.86;100.00;97614.63;5050021;27;103852;-58
2022/03/21 01:17:44;;;;;;;12.70;8.87;;;;;;;0.72;100.00;97615.25;5050788;27;101944;-58
2022/03/21 01:20:14;;;;;;;11.60;9.17;;;;;;;0.30;100.00;97625.75;5052285;27;102614;-59
2022/03/21 01:22:41;;;;;;;13.40;9.57;;;;;;;0.42;100.00;97632.34;5050032;27;105050;-58
2022/03/21 01:25:10;;;;;;;11.73;9.70;;;;;;;0.65;100.00;97630.78;5050717;27;102066;-59
2022/03/21 01:27:37;;;;;;;13.30;9.73;;;;;;;0.56;100.00;97633.53;5050820;27;103567;-59
2022/03/21 01:30:05;;;;;;;14.40;10.20;;;;;;;0.63;100.00;97627.50;5053491;27;105107;-58
2022/03/21 01:32:33;;;;;;;14.67;10.40;;;;;;;0.63;100.00;97630.13;5049655;27;105148;-59
2022/03/21 01:34:59;;;;;;;15.20;10.50;;;;;;;0.54;100.00;97625.00;5049005;27;104908;-58
2022/03/21 01:37:28;;;;;;;12.53;10.53;;;;;;;0.38;100.00;97635.41;5051027;27;101835;-58
2022/03/21 01:39:55;;;;;;;12.07;9.77;;;;;;;0.29;100.00;97625.91;5049545;27;103979;-58
2022/03/21 01:42:22;;;;;;;14.50;11.30;;;;;;;0.19;100.00;97633.03;5049847;27;105624;-58
2022/03/21 01:44:51;;;;;;;12.80;9.97;;;;;;;0.23;100.00;97627.31;5049505;27;101927;-59
2022/03/21 01:47:18;;;;;;;12.07;9.73;;;;;;;0.14;100.00;97633.50;5049193;27;105387;-59
2022/03/21 01:49:46;;;;;;;12.20;10.27;;;;;;;0.16;100.00;97634.16;5053256;27;105051;-58
2022/03/21 01:52:13;;;;;;;12.47;10.10;;;;;;;-0.13;100.00;97635.47;5049373;27;105319;-58
2022/03/21 01:57:27;;;;;;;15.73;10.43;;;;;;;-0.17;100.00;97628.09;5050271;27;101896;-59
2022/03/21 01:59:57;;;;;;;11.97;9.23;;;;;;;0.00;100.00;97628.03;5050610;27;103214;-59
2022/03/21 02:02:24;;;;;;;11.37;9.03;;;;;;;-0.10;100.00;97617.66;5050723;27;103175;-59
2022/03/21 02:04:51;;;;;;;14.00;10.53;;;;;;;-0.03;100.00;97621.31;5049921;27;101782;-58
2022/03/21 02:07:18;;;;;;;13.07;10.00;;;;;;;0.17;100.00;97619.31;5049114;27;103826;-58
2022/03/21 02:09:48;;;;;;;12.13;9.80;;;;;;;0.17;100.00;97616.69;5049966;27;101888;-58
2022/03/21 02:12:16;;;;;;;12.27;9.63;;;;;;;0.10;100.00;97615.66;5053499;27;101898;-58
2022/03/21 02:14:43;;;;;;;11.70;9.50;;;;;;;0.00;100.00;97622.81;5049180;27;105247;-58
2022/03/21 02:17:10;;;;;;;11.67;9.07;;;;;;;-0.02;100.00;97622.13;5049991;27;101941;-58
2022/03/21 02:19:39;;;;;;;13.60;10.03;;;;;;;0.03;100.00;97622.50;5051149;27;102641;-58
2022/03/21 02:22:31;;;;;;;11.37;9.33;;;;;;;-0.04;100.00;97626.69;5048289;27;105340;-59
2022/03/21 02:25:07;;;;;;;14.50;10.00;;;;;;;-0.07;100.00;97619.16;5051266;27;101760;-58
2022/03/21 02:27:38;;;;;;;14.23;10.37;;;;;;;-0.06;100.00;97620.78;5050570;27;102936;-58
2022/03/21 02:30:07;;;;;;;11.70;9.70;;;;;;;0.03;100.00;97622.50;5049474;27;103433;-58
2022/03/21 02:32:34;;;;;;;11.10;9.87;;;;;;;-0.15;100.00;97626.97;5049809;27;101866;-58
2022/03/21 02:35:02;;;;;;;11.63;9.03;;;;;;;-0.32;100.00;97620.00;5052471;27;103710;-58
2022/03/21 02:37:30;;;;;;;12.50;9.83;;;;;;;-0.36;100.00;97627.28;5049684;27;101892;-59
2022/03/21 02:40:00;;;;;;;11.83;9.63;;;;;;;-0.28;100.00;97631.75;5049646;27;105147;-58
2022/03/21 02:42:27;;;;;;;13.17;10.00;;;;;;;-0.42;100.00;97625.28;5048816;27;105694;-58
2022/03/21 02:44:56;;;;;;;14.07;10.17;;;;;;;-0.40;100.00;97630.38;5048628;27;101859;-58
2022/03/21 02:47:22;;;;;;;14.03;10.60;;;;;;;-0.40;100.00;97630.38;5048467;27;104118;-58
2022/03/21 02:49:52;;;;;;;15.33;10.03;;;;;;;-0.26;100.00;97632.44;5047781;27;104746;-58
2022/03/21 02:52:20;;;;;;;12.70;9.43;;;;;;;-0.28;100.00;97630.97;5048547;27;101893;-59
2022/03/21 02:54:47;;;;;;;10.97;9.10;;;;;;;-0.42;100.00;97640.16;5048939;27;105650;-58
2022/03/21 02:57:14;;;;;;;13.87;10.17;;;;;;;-0.29;100.00;97629.31;5051988;27;105167;-58
2022/03/21 02:59:41;;;;;;;13.27;10.13;;;;;;;-0.39;100.00;97634.63;5048036;27;104803;-58
2022/03/21 03:02:10;;;;;;;13.60;9.90;;;;;;;-0.40;100.00;97632.97;5047556;27;106103;-59
2022/03/21 03:04:37;;;;;;;13.53;9.37;;;;;;;-0.47;100.00;97634.56;5049353;27;101990;-59
2022/03/21 03:07:04;;;;;;;11.40;9.03;;;;;;;-0.61;100.00;97634.31;5049268;27;106010;-58
2022/03/21 03:09:31;;;;;;;13.43;10.20;;;;;;;-0.48;100.00;97638.16;5048597;27;103830;-58
2022/03/21 03:11:58;;;;;;;15.60;9.70;;;;;;;-0.68;100.00;97636.69;5048120;27;101906;-58
2022/03/21 03:14:25;;;;;;;12.87;9.93;;;;;;;-0.54;100.00;97633.56;5050474;27;102398;-58
2022/03/21 03:16:51;;;;;;;13.57;10.13;;;;;;;-0.32;100.00;97646.13;5048395;27;105389;-58
2022/03/21 03:19:20;;;;;;;16.43;10.53;;;;;;;-0.41;100.00;97641.81;5051526;27;101843;-59
2022/03/21 03:21:49;;;;;;;15.93;10.93;;;;;;;-0.49;100.00;97644.38;5047388;27;105503;-58
2022/03/21 03:24:19;;;;;;;15.93;10.33;;;;;;;-0.39;100.00;97644.28;5047860;27;102032;-58
2022/03/21 03:26:46;;;;;;;17.47;10.27;;;;;;;-0.26;100.00;97640.28;5048046;27;103832;-58
2022/03/21 03:29:13;;;;;;;17.07;11.10;;;;;;;-0.52;100.00;97634.22;5048951;27;102597;-59
2022/03/21 03:31:40;;;;;;;14.90;11.23;;;;;;;-0.56;100.00;97640.69;5047920;27;101709;-58
2022/03/21 03:34:08;;;;;;;15.27;10.63;;;;;;;-0.64;100.00;97647.66;5051404;27;104736;-58
2022/03/21 03:36:38;;;;;;;13.83;9.70;;;;;;;-0.63;100.00;97642.28;5051077;27;105509;-59
2022/03/21 03:39:06;;;;;;;12.97;9.77;;;;;;;-0.82;100.00;97652.88;5053634;27;101724;-59
2022/03/21 03:41:33;;;;;;;15.47;10.77;;;;;;;-0.85;100.00;97647.97;5055294;27;103888;-59
2022/03/21 03:44:00;;;;;;;14.20;10.50;;;;;;;-0.67;100.00;97646.16;5052746;27;102003;-59
2022/03/21 03:46:27;;;;;;;13.37;10.23;;;;;;;-0.70;100.00;97650.88;5051422;27;104831;-58
2022/03/21 03:48:55;;;;;;;17.80;10.87;;;;;;;-0.86;100.00;97648.94;5050827;27;105717;-58
2022/03/21 03:51:22;;;;;;;12.80;9.50;;;;;;;-0.90;100.00;97655.41;5051286;27;101867;-58
2022/03/21 03:53:51;;;;;;;12.43;9.60;;;;;;;-0.79;100.00;97651.75;5052004;27;105256;-58
2022/03/21 03:56:18;;;;;;;12.70;9.87;;;;;;;-0.80;100.00;97650.94;5051490;27;105583;-58
2022/03/21 03:58:45;;;;;;;13.60;9.53;;;;;;;-0.89;100.00;97656.25;5053684;27;102006;-58
2022/03/21 04:01:12;;;;;;;13.10;10.10;;;;;;;-0.82;100.00;97652.88;5054846;27;105303;-58
2022/03/21 04:03:48;;;;;;;11.43;9.50;;;;;;;-0.84;100.00;97649.59;5050825;27;102198;-59
2022/03/21 04:06:18;;;;;;;13.87;10.57;;;;;;;-0.67;100.00;97653.19;5052102;27;105495;-58
2022/03/21 04:08:46;;;;;;;15.53;10.90;;;;;;;-0.87;100.00;97656.91;5050344;27;103859;-58
2022/03/21 04:11:15;;;;;;;13.83;10.60;;;;;;;-0.78;100.00;97658.63;5050954;27;101914;-58
2022/03/21 04:13:43;;;;;;;13.07;10.50;;;;;;;-0.95;100.00;97656.81;5050708;27;105008;-58
2022/03/21 04:16:10;;;;;;;13.37;9.90;;;;;;;-0.89;100.00;97662.28;5051931;27;103053;-58
2022/03/21 04:18:38;;;;;;;12.57;10.20;;;;;;;-0.92;100.00;97656.53;5051951;27;101932;-58
2022/03/21 04:21:05;;;;;;;14.17;10.93;;;;;;;-0.95;100.00;97662.03;5050646;27;105125;-58
2022/03/21 04:23:33;;;;;;;14.27;10.03;;;;;;;-1.04;100.00;97663.75;5053550;27;105615;-58
2022/03/21 04:26:00;;;;;;;14.00;9.93;;;;;;;-0.83;100.00;97666.09;5052057;27;104074;-58
2022/03/21 04:28:28;;;;;;;14.10;11.33;;;;;;;-0.81;100.00;97672.81;5051184;27;105876;-58
2022/03/21 04:30:56;;;;;;;12.80;9.53;;;;;;;-0.99;100.00;97666.75;5050541;27;101849;-58
2022/03/21 04:33:23;;;;;;;12.97;9.90;;;;;;;-0.96;100.00;97671.69;5051642;27;105110;-58
2022/03/21 04:35:50;;;;;;;13.97;9.73;;;;;;;-0.73;100.00;97670.25;5050670;27;104126;-58
2022/03/21 04:38:18;;;;;;;13.47;10.37;;;;;;;-0.71;100.00;97676.16;5051631;27;101899;-59
2022/03/21 04:40:47;;;;;;;12.77;10.50;;;;;;;-0.88;100.00;97678.78;5050579;27;105847;-58
2022/03/21 04:43:15;;;;;;;13.70;9.93;;;;;;;-1.14;100.00;97689.13;5049727;27;105290;-58
2022/03/21 04:45:44;;;;;;;15.43;11.00;;;;;;;-0.87;100.00;97678.63;5055858;27;101968;-58
2022/03/21 04:48:12;;;;;;;13.07;10.50;;;;;;;-0.84;100.00;97688.75;5049244;27;106793;-59
2022/03/21 04:50:39;;;;;;;14.87;10.97;;;;;;;-0.89;100.00;97693.59;5049849;27;101945;-58
2022/03/21 04:53:08;;;;;;;16.87;11.70;;;;;;;-0.81;100.00;97688.47;5049668;27;105836;-58
2022/03/21 04:55:35;;;;;;;15.23;11.57;;;;;;;-0.99;100.00;97692.84;5049012;27;105704;-59
2022/03/21 04:58:02;;;;;;;13.10;10.60;;;;;;;-0.92;100.00;97701.75;5050080;27;102168;-59
2022/03/21 05:00:29;;;;;;;14.27;10.10;;;;;;;-0.87;100.00;97701.31;5049996;27;105714;-58
2022/03/21 05:02:58;;;;;;;15.57;11.10;;;;;;;-0.74;100.00;97702.56;5049239;27;105274;-58
2022/03/21 05:05:25;;;;;;;14.97;11.03;;;;;;;-0.66;100.00;97699.22;5050000;27;101977;-58
2022/03/21 05:07:54;;;;;;;18.37;11.20;;;;;;;-0.65;100.00;97704.31;5052892;27;105559;-58
2022/03/21 05:10:22;;;;;;;15.47;11.90;;;;;;;-0.47;100.00;97713.75;5050014;27;101926;-58
2022/03/21 05:12:50;;;;;;;14.63;10.63;;;;;;;-0.39;100.00;97718.25;5049806;27;104808;-58
2022/03/21 05:15:18;;;;;;;13.57;10.67;;;;;;;-0.53;100.00;97716.16;5050832;27;102613;-58
2022/03/21 05:17:45;;;;;;;15.87;11.13;;;;;;;-0.84;100.00;97721.88;5049843;27;101948;-58
2022/03/21 05:20:17;;;;;;;15.10;10.77;;;;;;;-0.80;100.00;97728.47;5049529;27;105161;-58
2022/03/21 05:30:56;;;;;;;14.00;10.20;;;;;;;-0.77;100.00;97728.97;5049228;27;105353;-58
2022/03/21 05:31:02;;;;;;;15.70;11.00;;;;;;;-0.73;100.00;97727.72;5052518;27;105586;-58
2022/03/21 05:36:16;;;;;;;15.43;11.03;;;;;;;-0.47;100.00;97726.81;5048772;27;105683;-58
2022/03/21 05:38:42;;;;;;;16.93;10.87;;;;;;;-0.31;100.00;97728.78;5049663;27;101979;-58
2022/03/21 05:41:10;;;;;;;14.77;11.17;;;;;;;-0.21;100.00;97732.13;5049577;27;104963;-58
2022/03/21 05:43:36;;;;;;;14.60;11.67;;;;;;;-0.21;100.00;97732.13;5050279;27;102629;-58
2022/03/21 05:46:04;;;;;;;17.97;12.30;;;;;;;-0.06;100.00;97727.97;5049414;27;101893;-59
2022/03/21 05:51:18;;;;;;;21.50;12.50;;;;;;;0.13;100.00;97736.47;5048873;27;105943;-59
2022/03/21 05:53:46;;;;;;;16.27;12.13;;;;;;;0.24;100.00;97727.56;5052764;27;101793;-59
2022/03/21 05:56:14;;;;;;;16.63;12.53;;;;;;;0.32;100.00;97725.81;5047704;27;105354;-59
2022/03/21 05:58:41;;;;;;;15.47;11.50;;;;;;;0.37;100.00;97741.03;5050419;27;102249;-59
2022/03/21 06:01:08;;;;;;;15.90;11.90;;;;;;;0.36;100.00;97742.03;5049157;27;104828;-59
2022/03/21 06:03:35;;;;;;;17.27;11.63;;;;;;;0.20;100.00;97747.97;5031516;27;105453;-59
2022/03/21 06:06:02;;;;;;;16.40;12.17;;;;;;;0.16;100.00;97740.56;5049030;27;102009;-59
2022/03/21 06:08:31;;;;;;;15.60;11.50;;;;;;;0.49;100.00;97734.56;5049264;27;105182;-59
2022/03/21 06:11:04;;;;;;;17.77;11.57;;;;;;;0.67;100.00;97748.41;5048526;27;105053;-59
2022/03/21 06:13:35;;;;;;;18.93;12.77;;;;;;;0.65;100.00;97742.50;5052287;27;101775;-59
2022/03/21 06:16:03;;;;;;;18.33;12.87;;;;;;;0.39;100.00;97746.97;5048459;27;105294;-59
2022/03/21 06:18:31;;;;;;;19.80;13.13;;;;;;;0.47;100.00;97744.38;5048757;27;102599;-59
2022/03/21 06:20:58;;;;;;;20.73;12.37;;;;;;;0.86;100.00;97750.78;5048891;27;105390;-59
2022/03/21 06:23:25;;;;;;;22.73;13.23;;;;;;;1.16;100.00;97752.88;5049758;27;103164;-59
2022/03/21 06:25:54;;;;;;;20.33;12.77;;;;;;;1.32;100.00;97753.72;5048717;27;102030;-59
2022/03/21 06:28:22;;;;;;;19.43;13.00;;;;;;;1.43;100.00;97750.81;5048788;27;104751;-59
2022/03/21 06:30:50;;;;;;;18.93;12.77;;;;;;;1.38;100.00;97763.56;5048155;27;105444;-59
2022/03/21 06:33:18;;;;;;;18.47;12.33;;;;;;;1.44;100.00;97749.84;5048739;27;102186;-59
2022/03/21 06:35:44;;;;;;;20.10;13.23;;;;;;;1.61;100.00;97753.31;5051528;27;106197;-59
2022/03/21 06:38:12;;;;;;;18.70;12.70;;;;;;;1.58;100.00;97756.28;5048445;27;101931;-59
2022/03/21 06:40:39;;;;;;;19.43;12.63;;;;;;;1.61;100.00;97758.56;5048632;27;105254;-59
2022/03/21 06:43:08;;;;;;;17.93;12.40;;;;;;;1.86;100.00;97757.63;5049597;27;102690;-59
2022/03/21 06:45:35;;;;;;;18.43;13.17;;;;;;;1.87;100.00;97761.88;5048127;27;101981;-59
2022/03/21 06:48:02;;;;;;;17.97;12.83;;;;;;;2.23;100.00;97761.38;5048513;27;105618;-59
2022/03/21 06:50:31;;;;;;;20.57;13.10;;;;;;;2.46;100.00;97772.03;5047881;27;103718;-59
2022/03/21 06:52:58;;;;;;;19.60;13.27;;;;;;;2.72;100.00;97764.72;5048406;27;101912;-59
2022/03/21 06:55:28;;;;;;;22.80;13.63;;;;;;;2.87;100.00;97766.50;5047934;27;104817;-59
2022/03/21 06:57:55;;;;;;;17.07;13.50;;;;;;;2.85;100.00;97773.72;5051081;27;105160;-59
2022/03/21 07:00:24;;;;;;;23.77;13.63;;;;;;;2.87;100.00;97770.94;5048082;27;105179;-59
2022/03/21 07:02:52;;;;;;;15.90;12.43;;;;;;;3.10;100.00;97767.41;5047299;27;105530;-59
2022/03/21 07:05:19;;;;;;;16.97;12.47;;;;;;;3.06;100.00;97770.56;5048167;27;102130;-60
2022/03/21 07:07:47;;;;;;;16.63;12.77;;;;;;;2.90;100.00;97775.88;5048268;27;105070;-59
2022/03/21 07:10:15;;;;;;;18.07;12.17;;;;;;;2.87;100.00;97773.56;5047465;27;105804;-59
2022/03/21 07:12:42;;;;;;;15.77;12.43;;;;;;;2.92;100.00;97781.75;5047552;27;101938;-59
2022/03/21 07:15:09;;;;;;;17.80;12.77;;;;;;;3.04;100.00;97783.03;5047970;27;105271;-59
2022/03/21 07:17:38;;;;;;;17.47;12.70;;;;;;;2.87;100.00;97786.69;5048989;27;102594;-59
2022/03/21 07:20:06;;;;;;;19.17;12.57;;;;;;;3.04;100.00;97780.41;5051211;27;101873;-59
2022/03/21 07:22:33;;;;;;;16.33;12.80;;;;;;;3.34;100.00;97785.69;5047563;27;105416;-59
2022/03/21 07:25:00;;;;;;;16.63;13.10;;;;;;;3.44;100.00;97796.03;5049265;27;101833;-59
2022/03/21 07:27:27;;;;;;;20.93;12.87;;;;;;;3.55;100.00;97800.91;5047969;27;105514;-59
2022/03/21 07:29:54;;;;;;;17.47;13.53;;;;;;;3.85;100.00;97800.88;5047182;27;105670;-59
2022/03/21 07:32:22;;;;;;;16.63;12.37;;;;;;;4.07;100.00;97801.88;5047941;27;101891;-59
2022/03/21 07:34:50;;;;;;;17.80;12.87;;;;;;;4.10;100.00;97804.97;5048985;27;102615;-59
2022/03/21 07:37:17;;;;;;;18.70;13.37;;;;;;;4.45;100.00;97803.56;5047422;27;105293;-59
2022/03/21 07:39:47;;;;;;;18.73;13.20;;;;;;;4.68;100.00;97797.25;5047952;27;102039;-59
2022/03/21 07:42:16;;;;;;;17.37;12.20;;;;;;;4.77;100.00;97800.63;5050753;27;103978;-60
2022/03/21 07:47:29;;;;;;;16.40;11.80;;;;;;;5.01;100.00;97808.28;5047577;27;105398;-59
2022/03/21 07:50:06;;;;;;;18.40;11.97;;;;;;;5.18;100.00;97812.38;5047197;27;105229;-59
2022/03/21 07:52:33;;;;;;;18.33;12.13;;;;;;;5.58;100.00;97814.53;5047587;27;102031;-59
2022/03/21 07:55:00;;;;;;;18.33;11.73;;;;;;;5.64;100.00;97809.34;5047452;27;105738;-59
2022/03/21 07:57:28;;;;;;;16.40;11.67;;;;;;;5.84;100.00;97806.97;5047202;27;105448;-59
2022/03/21 07:59:56;;;;;;;16.43;11.47;;;;;;;5.80;100.00;97813.59;5048548;27;101879;-59
2022/03/21 08:02:25;;;;;;;13.53;11.07;;;;;;;5.63;100.00;97801.59;5047758;27;102499;-59
2022/03/21 08:04:52;;;;;;;16.23;11.43;;;;;;;6.23;100.00;97804.72;5051481;27;101853;-59
2022/03/21 08:07:21;;;;;;;14.77;10.87;;;;;;;6.51;100.00;97808.22;5047463;27;105194;-59
2022/03/21 08:09:49;;;;;;;16.17;10.83;;;;;;;6.72;100.00;97814.28;5048178;27;103177;-59
2022/03/21 08:12:16;;;;;;;18.17;10.93;;;;;;;6.42;100.00;97817.28;5048725;27;101781;-59
2022/03/21 08:14:43;;;;;;;15.57;11.10;;;;;;;6.09;100.00;97821.44;5047338;27;106442;-59
2022/03/21 08:17:10;;;;;;;14.53;11.00;;;;;;;6.55;100.00;97814.78;5048474;27;102475;-59
2022/03/21 08:19:37;;;;;;;15.80;11.23;;;;;;;6.90;100.00;97816.47;5051191;27;101914;-59
2022/03/21 08:22:05;;;;;;;14.93;11.57;;;;;;;6.98;100.00;97811.84;5052295;27;102634;-59
2022/03/21 08:24:35;;;;;;;15.37;12.10;;;;;;;7.04;100.00;97812.91;5055124;27;102852;-59
2022/03/21 08:27:04;;;;;;;15.93;11.73;;;;;;;7.10;100.00;97823.53;5050750;27;106705;-59
2022/03/21 08:29:32;;;;;;;14.13;11.40;;;;;;;7.39;100.00;97823.31;5051191;27;102594;-59
2022/03/21 08:31:58;;;;;;;13.60;11.03;;;;;;;7.11;100.00;97822.53;5052190;27;101844;-60
2022/03/21 08:34:25;;;;;;;16.67;11.93;;;;;;;7.53;100.00;97816.25;5050463;27;104037;-59
2022/03/21 08:36:53;;;;;;;13.63;11.27;;;;;;;7.74;100.00;97808.22;5050048;27;105475;-59
2022/03/21 08:39:20;;;;;;;15.50;11.20;;;;;;;7.51;99.07;97816.44;5050243;27;101871;-59
2022/03/21 08:41:49;;;;;;;12.23;10.60;;;;;;;7.61;97.79;97810.78;5050515;27;105635;-59
2022/03/21 08:44:19;;;;;;;12.53;10.80;;;;;;;7.45;97.60;97811.09;5049723;27;105195;-59
2022/03/21 08:46:46;;;;;;;16.03;11.43;;;;;;;7.74;97.99;97810.84;5053863;27;102085;-59
2022/03/21 08:49:26;;;;;;;15.40;11.37;;;;;;;8.29;98.20;97807.97;5049673;27;105940;-59
2022/03/21 08:51:54;;;;;;;16.33;11.50;;;;;;;8.61;98.24;97808.00;5050485;27;101772;-59
2022/03/21 08:54:21;;;;;;;15.63;11.23;;;;;;;8.61;89.99;97807.22;5051647;27;102671;-59
2022/03/21 08:56:50;;;;;;;15.23;11.47;;;;;;;8.89;92.87;97813.13;5049811;27;105381;-59
2022/03/21 08:59:18;;;;;;;14.07;11.10;;;;;;;9.00;85.65;97807.97;5050010;27;101847;-59
2022/03/21 09:01:46;;;;;;;12.93;11.43;;;;;;;9.26;82.52;97804.50;5049946;27;105458;-59
2022/03/21 09:04:13;;;;;;;15.03;12.07;;;;;;;9.13;82.80;97815.13;5049378;27;105064;-59
2022/03/21 09:06:40;;;;;;;13.80;11.40;;;;;;;9.18;85.65;97813.50;5051591;27;101802;-59
2022/03/21 09:09:08;;;;;;;13.07;11.10;;;;;;;9.55;81.75;97806.66;5053038;27;104770;-59
2022/03/21 09:11:35;;;;;;;13.37;11.53;;;;;;;9.54;80.44;97805.03;5050099;27;101976;-59
2022/03/21 09:14:06;;;;;;;14.43;11.57;;;;;;;9.84;77.97;97811.44;5050120;27;103943;-60
2022/03/21 09:16:34;;;;;;;14.53;11.13;;;;;;;9.93;73.88;97810.19;5049247;27;105868;-59
2022/03/21 09:19:00;;;;;;;15.07;11.10;;;;;;;10.40;73.42;97812.38;5049865;27;101970;-59
2022/03/21 09:21:28;;;;;;;12.00;10.67;;;;;;;10.68;71.35;97810.19;5049937;27;106302;-59
2022/03/21 09:23:55;;;;;;;12.63;10.90;;;;;;;10.63;64.70;97804.69;5049402;27;105666;-59
2022/03/21 09:26:22;;;;;;;12.23;10.93;;;;;;;10.83;65.76;97807.97;5049749;27;102019;-59
2022/03/21 09:28:50;;;;;;;11.97;10.23;;;;;;;10.99;62.92;97808.25;5049515;27;105713;-59
2022/03/21 09:31:19;;;;;;;13.93;10.20;;;;;;;11.27;64.70;97797.97;5051384;27;105648;-59
2022/03/21 09:33:46;;;;;;;13.07;10.50;;;;;;;11.24;60.83;97795.72;5049711;27;105357;-59
2022/03/21 09:36:14;;;;;;;12.40;10.03;;;;;;;11.47;60.33;97793.25;5050679;27;102623;-59
2022/03/21 09:38:41;;;;;;;11.63;10.47;;;;;;;11.76;60.42;97789.03;5049465;27;101716;-59
2022/03/21 09:41:12;;;;;;;11.30;10.10;;;;;;;11.94;59.68;97791.69;5049498;27;104054;-59
2022/03/21 09:43:40;;;;;;;13.33;10.03;;;;;;;12.11;58.39;97787.34;5048967;27;105369;-59
2022/03/21 09:46:08;;;;;;;11.40;10.13;;;;;;;11.66;56.40;97788.78;5049123;27;102075;-59
2022/03/21 09:48:37;;;;;;;15.73;10.93;;;;;;;11.77;57.90;97790.69;5049518;27;105374;-59
2022/03/21 09:51:05;;;;;;;12.80;10.67;;;;;;;11.67;56.72;97779.72;5048642;27;105571;-59
2022/03/21 09:53:33;;;;;;;13.77;11.20;;;;;;;12.07;55.05;97783.50;5054343;27;101656;-59
2022/03/21 09:56:00;;;;;;;13.67;10.70;;;;;;;11.75;53.53;97777.56;5047960;27;105007;-59
2022/03/21 09:58:30;;;;;;;12.73;10.43;;;;;;;12.33;54.06;97775.16;5050534;27;101869;-59
2022/03/21 10:00:57;;;;;;;12.50;9.90;;;;;;;12.70;51.11;97774.75;5049005;27;104092;-59
2022/03/21 10:03:25;;;;;;;12.70;10.87;;;;;;;12.76;49.81;97776.50;5049674;27;102193;-59
2022/03/21 10:05:54;;;;;;;16.90;10.43;;;;;;;12.83;50.78;97776.41;5048888;27;101884;-59
2022/03/21 10:08:22;;;;;;;11.73;10.30;;;;;;;13.37;50.02;97768.06;5049283;27;105555;-59
2022/03/21 10:10:55;;;;;;;13.60;10.40;;;;;;;13.50;50.49;97781.19;5048500;27;105713;-59
2022/03/21 10:13:24;;;;;;;12.10;10.83;;;;;;;13.58;49.16;97775.50;5052605;27;101743;-59
2022/03/21 10:16:07;;;;;;;13.50;10.63;;;;;;;13.10;47.97;97772.28;5048348;27;105085;-59
2022/03/21 10:18:33;;;;;;;12.50;10.90;;;;;;;12.45;49.12;97773.31;5049024;27;101778;-59
2022/03/21 10:21:13;;;;;;;12.90;10.87;;;;;;;12.89;47.36;97768.28;5049088;27;105200;-59
2022/03/21 10:23:41;;;;;;;11.77;10.33;;;;;;;12.93;50.52;97771.31;5048228;27;106302;-59
2022/03/21 10:26:26;;;;;;;13.63;11.27;;;;;;;12.69;51.72;97766.97;5048709;27;101820;-59
2022/03/21 10:28:54;;;;;;;12.40;11.10;;;;;;;12.94;51.46;97763.06;5047626;27;105762;-59
2022/03/21 10:31:39;;;;;;;12.77;11.03;;;;;;;13.21;49.76;97758.94;5049444;27;102678;-59
2022/03/21 10:34:08;;;;;;;13.80;11.30;;;;;;;13.09;52.08;97770.66;5048774;27;101827;-59
2022/03/21 10:36:37;;;;;;;12.53;11.23;;;;;;;12.93;50.88;97758.75;5051741;27;105773;-59
2022/03/21 10:39:09;;;;;;;11.93;10.60;;;;;;;13.26;49.72;97755.53;5048676;27;101836;-60
2022/03/21 10:41:38;;;;;;;13.70;11.03;;;;;;;13.79;48.67;97762.28;5049362;27;102607;-59
2022/03/21 10:44:07;;;;;;;14.57;11.10;;;;;;;14.14;47.41;97764.84;5048059;27;105446;-59
2022/03/21 10:46:34;;;;;;;12.00;10.73;;;;;;;14.51;47.07;97750.81;5048507;27;101712;-59
2022/03/21 10:49:02;;;;;;;11.97;10.77;;;;;;;14.75;49.30;97756.84;5048580;27;104995;-59
2022/03/21 10:51:49;;;;;;;14.17;10.83;;;;;;;13.89;48.58;97751.78;5049071;27;103111;-59
2022/03/21 10:54:37;;;;;;;12.77;10.23;;;;;;;13.83;46.41;97751.94;5047281;27;101770;-59
2022/03/21 10:57:06;;;;;;;12.43;10.63;;;;;;;13.46;45.77;97756.00;5050028;27;103190;-59
2022/03/21 10:59:33;;;;;;;11.30;10.17;;;;;;;13.67;47.55;97750.00;5051094;27;105324;-59
2022/03/21 11:02:14;;;;;;;11.80;10.60;;;;;;;14.38;43.75;97745.00;5048057;27;105053;-59
2022/03/21 11:04:44;;;;;;;12.03;9.93;;;;;;;14.75;43.91;97744.28;5047547;27;104982;-59
2022/03/21 11:07:14;;;;;;;11.30;10.13;;;;;;;14.30;43.75;97742.69;5049127;27;101992;-59
2022/03/21 11:09:42;;;;;;;12.77;11.27;;;;;;;14.42;43.36;97738.09;5049090;27;102506;-59
2022/03/21 11:12:10;;;;;;;13.60;10.67;;;;;;;14.57;43.09;97736.50;5047531;27;104029;-59
2022/03/21 11:14:39;;;;;;;13.30;10.60;;;;;;;14.11;42.98;97738.59;5048105;27;101860;-59
2022/03/21 11:17:07;;;;;;;11.80;10.33;;;;;;;15.07;43.79;97734.59;5047832;27;105638;-59
2022/03/21 11:19:35;;;;;;;12.97;11.10;;;;;;;15.61;40.97;97724.91;5047471;27;105027;-59
2022/03/21 11:22:04;;;;;;;11.63;10.43;;;;;;;14.82;39.80;97728.84;5051578;27;102247;-60
2022/03/21 11:24:34;;;;;;;12.77;10.33;;;;;;;15.12;39.89;97717.78;5047339;27;105176;-59
2022/03/21 11:27:26;;;;;;;12.50;10.83;;;;;;;15.72;41.12;97723.97;5047773;27;101886;-59
2022/03/21 11:30:03;;;;;;;11.97;10.67;;;;;;;15.80;37.94;97718.19;5047718;27;105684;-59
2022/03/21 11:32:39;;;;;;;12.23;10.63;;;;;;;15.72;37.47;97710.56;5047458;27;103886;-59